Time;durP1;ratioP1;P1;durP2;ratioP2;P2;SDS_P1;SDS_P2;PMS_P1;PMS_P2;Temp;Humidity;BMP_temperature;BMP_pressure;BME280_temperature;BME280_humidity;BME280_pressure;Samples;Min_cycle;Max_cycle;Signal;HPM_P1;HPM_P2
2023/07/26 00:00:26;;;;;;;;;;;;;;;16.55;53.58;96244.75;6295425;28;20443;-70
2023/07/26 00:03:27;;;;;;;;;;;;;;;16.54;54.54;96239.59;6277312;28;19931;-70
2023/07/26 00:06:31;;;;;;;;;;;;;;;16.55;53.69;96250.06;6295319;28;19924;-70
2023/07/26 00:09:35;;;;;;;;;;;;;;;16.57;53.35;96239.28;6295330;28;19924;-71
2023/07/26 00:12:39;;;;;;;;;;;;;;;16.55;54.28;96242.09;6277065;28;19930;-69
2023/07/26 00:15:40;;;;;;;;;;;;;;;16.53;53.38;96246.75;6294464;28;20063;-69
2023/07/26 00:18:44;;;;;;;;;;;;;;;16.51;53.69;96243.41;6294968;28;20425;-70
2023/07/26 00:21:45;;;;;;;;;;;;;;;16.50;53.90;96252.34;6294941;28;20009;-69
2023/07/26 00:24:46;;;;;;;;;;;;;;;16.54;53.64;96248.41;6294427;28;19928;-70
2023/07/26 00:27:49;;;;;;;;;;;;;;;16.51;54.60;96242.56;6295259;28;19924;-71
2023/07/26 00:30:53;;;;;;;;;;;;;;;16.49;54.23;96250.66;6277074;28;20421;-71
2023/07/26 00:33:56;;;;;;;;;;;;;;;16.50;53.59;96247.03;6294938;28;19925;-71
2023/07/26 00:37:03;;;;;;;;;;;;;;;16.50;54.13;96247.03;6294823;28;20088;-71
2023/07/26 00:40:05;;;;;;;;;;;;;;;16.51;55.27;96246.06;6294706;28;20482;-71
2023/07/26 00:43:06;;;;;;;;;;;;;;;16.57;54.23;96242.78;6294859;28;19924;-70
2023/07/26 00:46:07;;;;;;;;;;;;;;;16.64;54.59;96252.78;6294716;28;20070;-71
2023/07/26 00:49:13;;;;;;;;;;;;;;;16.69;53.90;96250.53;6294911;28;19925;-71
2023/07/26 00:52:17;;;;;;;;;;;;;;;16.72;53.99;96244.91;6294916;28;19924;-71
2023/07/26 00:55:18;;;;;;;;;;;;;;;16.74;53.64;96248.25;6294123;28;20329;-70
2023/07/26 00:58:20;;;;;;;;;;;;;;;16.74;53.67;96248.25;6294596;28;20289;-71
2023/07/26 01:01:24;;;;;;;;;;;;;;;16.79;53.05;96251.31;6298071;28;20409;-71
2023/07/26 01:04:27;;;;;;;;;;;;;;;16.86;53.55;96241.72;6299411;28;20302;-71
2023/07/26 01:07:36;;;;;;;;;;;;;;;16.94;52.97;96233.81;6281854;28;19939;-70
2023/07/26 01:10:40;;;;;;;;;;;;;;;17.01;52.83;96234.88;6298805;28;19936;-71
2023/07/26 01:13:49;;;;;;;;;;;;;;;17.13;52.98;96237.28;6298503;28;20385;-71
2023/07/26 01:16:53;;;;;;;;;;;;;;;17.18;52.77;96234.97;6281680;28;19928;-70
2023/07/26 01:19:54;;;;;;;;;;;;;;;17.22;53.44;96237.19;6299313;28;19924;-70
2023/07/26 01:22:55;;;;;;;;;;;;;;;17.30;52.51;96240.91;6298292;28;19931;-70
2023/07/26 01:25:58;;;;;;;;;;;;;;;17.39;52.53;96247.94;6299113;28;20386;-70
2023/07/26 01:29:02;;;;;;;;;;;;;;;17.45;52.52;96256.09;6281103;28;20278;-71
2023/07/26 01:32:04;;;;;;;;;;;;;;;17.52;52.33;96248.31;6298160;28;19935;-70
2023/07/26 01:35:05;;;;;;;;;;;;;;;17.57;52.44;96258.50;6280257;28;19932;-71
2023/07/26 01:38:08;;;;;;;;;;;;;;;17.63;52.34;96257.84;6298425;28;19924;-71
2023/07/26 01:41:10;;;;;;;;;;;;;;;17.65;52.58;96261.19;6279744;28;19924;-71
2023/07/26 01:44:14;;;;;;;;;;;;;;;17.66;52.17;96265.50;6298510;28;20301;-69
2023/07/26 01:47:15;;;;;;;;;;;;;;;17.66;52.34;96263.72;6298542;28;19924;-69
2023/07/26 01:50:18;;;;;;;;;;;;;;;17.70;52.21;96273.03;6298372;28;19925;-70
2023/07/26 01:53:24;;;;;;;;;;;;;;;17.75;52.56;96269.91;6298537;28;19924;-72
2023/07/26 01:56:28;;;;;;;;;;;;;;;17.82;52.24;96272.78;6298289;28;20314;-71
2023/07/26 01:59:31;;;;;;;;;;;;;;;17.90;52.88;96278.16;6298364;28;19924;-71
2023/07/26 02:02:32;;;;;;;;;;;;;;;17.99;52.85;96281.69;6280223;28;19925;-71
2023/07/26 02:05:33;;;;;;;;;;;;;;;18.07;52.47;96274.56;6297537;28;20187;-71
2023/07/26 02:08:37;;;;;;;;;;;;;;;18.18;52.99;96282.25;6297894;28;20015;-70
2023/07/26 02:11:41;;;;;;;;;;;;;;;18.39;52.32;96284.47;6296513;28;19946;-71
2023/07/26 02:14:47;;;;;;;;;;;;;;;18.52;52.33;96293.84;6297977;28;19925;-70
2023/07/26 02:17:48;;;;;;;;;;;;;;;18.53;51.90;96292.84;6279322;28;20019;-70
2023/07/26 02:21:11;;;;;;;;;;;;;;;18.57;51.97;96289.69;6280437;28;19928;-71
2023/07/26 02:24:12;;;;;;;;;;;;;;;18.61;51.64;96287.53;6279150;28;19931;-71
2023/07/26 02:27:13;;;;;;;;;;;;;;;18.67;51.52;96300.19;6297652;28;19920;-70
2023/07/26 02:30:19;;;;;;;;;;;;;;;18.74;51.61;96298.59;6263128;28;19925;-71
2023/07/26 02:33:23;;;;;;;;;;;;;;;18.88;51.28;96296.25;6296221;28;20386;-71
2023/07/26 02:36:29;;;;;;;;;;;;;;;18.92;51.39;96302.94;6297295;28;19924;-71
2023/07/26 02:39:30;;;;;;;;;;;;;;;18.97;51.17;96305.94;6296964;28;19932;-70
2023/07/26 02:42:31;;;;;;;;;;;;;;;19.07;50.87;96314.59;6278757;28;20029;-71
2023/07/26 02:45:32;;;;;;;;;;;;;;;19.14;50.44;96318.28;6279046;28;19924;-70
2023/07/26 02:48:38;;;;;;;;;;;;;;;19.25;50.49;96322.47;6297201;28;19924;-72
2023/07/26 02:51:39;;;;;;;;;;;;;;;19.33;50.36;96321.59;6296021;28;20305;-71
2023/07/26 02:54:40;;;;;;;;;;;;;;;19.47;50.28;96319.09;6296526;28;19931;-71
2023/07/26 02:57:41;;;;;;;;;;;;;;;19.60;50.12;96321.25;6295989;28;19924;-70
2023/07/26 03:00:42;;;;;;;;;;;;;;;19.64;50.45;96327.06;6296209;28;20304;-71
2023/07/26 03:03:44;;;;;;;;;;;;;;;19.78;50.07;96317.56;6296689;28;20419;-72
2023/07/26 03:06:46;;;;;;;;;;;;;;;19.90;49.66;96321.53;6295721;28;19928;-71
2023/07/26 03:09:48;;;;;;;;;;;;;;;20.09;49.03;96321.16;6278423;28;19924;-71
2023/07/26 03:12:50;;;;;;;;;;;;;;;20.19;48.69;96315.63;6278707;28;20021;-70
2023/07/26 03:15:53;;;;;;;;;;;;;;;20.28;48.52;96319.09;6296315;28;19925;-70
2023/07/26 03:18:57;;;;;;;;;;;;;;;20.38;47.90;96330.38;6295424;28;20054;-70
2023/07/26 03:22:01;;;;;;;;;;;;;;;20.49;47.73;96324.66;6295757;28;19924;-70
2023/07/26 03:25:04;;;;;;;;;;;;;;;20.60;47.41;96329.63;6296201;28;19924;-71
2023/07/26 03:28:06;;;;;;;;;;;;;;;20.67;47.20;96328.97;6295101;28;19930;-70
2023/07/26 03:31:09;;;;;;;;;;;;;;;20.75;46.96;96326.22;6295933;28;20397;-70
2023/07/26 03:34:10;;;;;;;;;;;;;;;20.88;46.85;96331.81;6294917;28;19925;-70
2023/07/26 03:37:13;;;;;;;;;;;;;;;20.94;46.56;96331.13;6295858;28;20297;-70
2023/07/26 03:40:19;;;;;;;;;;;;;;;21.05;46.52;96333.38;6295818;28;19924;-70
2023/07/26 03:43:22;;;;;;;;;;;;;;;21.17;46.02;96335.63;6295017;28;19924;-71
2023/07/26 03:46:27;;;;;;;;;;;;;;;21.23;45.96;96329.56;6295628;28;19929;-71
2023/07/26 03:49:30;;;;;;;;;;;;;;;21.39;45.42;96334.00;6295398;28;19925;-70
2023/07/26 03:52:34;;;;;;;;;;;;;;;21.56;44.69;96329.34;6294095;28;19924;-70
2023/07/26 03:55:35;;;;;;;;;;;;;;;21.50;44.95;96326.38;6276623;28;19931;-71
2023/07/26 03:58:36;;;;;;;;;;;;;;;21.59;45.03;96326.28;6294694;28;19925;-71
2023/07/26 04:01:42;;;;;;;;;;;;;;;21.78;44.75;96317.75;6294591;28;20404;-72
2023/07/26 04:04:45;;;;;;;;;;;;;;;21.90;44.65;96316.25;6295227;28;19920;-72
2023/07/26 04:07:48;;;;;;;;;;;;;;;22.05;44.30;96313.59;6295012;28;20347;-71
2023/07/26 04:10:50;;;;;;;;;;;;;;;22.16;44.17;96314.97;6294250;28;20575;-71
2023/07/26 04:13:53;;;;;;;;;;;;;;;22.27;43.86;96316.38;6295566;28;20019;-69
2023/07/26 04:16:56;;;;;;;;;;;;;;;22.38;43.74;96324.78;6295085;28;19924;-71
2023/07/26 04:19:59;;;;;;;;;;;;;;;22.52;43.49;96315.06;6294896;28;19963;-71
2023/07/26 04:23:00;;;;;;;;;;;;;;;22.63;42.99;96316.44;6294224;28;19947;-71
2023/07/26 04:26:01;;;;;;;;;;;;;;;22.88;42.35;96316.09;6293559;28;20321;-71
2023/07/26 04:29:05;;;;;;;;;;;;;;;22.92;42.01;96315.50;6276098;28;19925;-70
2023/07/26 04:32:08;;;;;;;;;;;;;;;22.93;41.96;96325.22;6276867;28;19928;-71
2023/07/26 04:35:13;;;;;;;;;;;;;;;23.09;41.31;96321.50;6294424;28;20316;-71
2023/07/26 04:38:13;;;;;;;;;;;;;;;23.11;41.38;96326.69;6294622;28;20146;-71
2023/07/26 04:41:17;;;;;;;;;;;;;;;23.31;41.05;96325.84;6269943;28;19929;-71
2023/07/26 04:44:18;;;;;;;;;;;;;;;25.00;38.17;96328.34;6270139;28;20448;-71
2023/07/26 04:47:22;;;;;;;;;;;;;;;28.19;33.65;96332.66;6270095;28;20394;-71
2023/07/26 04:50:25;;;;;;;;;;;;;;;31.48;30.07;96342.34;6269391;28;19929;-71
2023/07/26 04:53:26;;;;;;;;;;;;;;;34.62;27.84;96350.22;6251724;28;20312;-72
2023/07/26 04:56:27;;;;;;;;;;;;;;;37.52;25.50;96355.94;6269128;28;19924;-72
2023/07/26 04:59:28;;;;;;;;;;;;;;;39.99;22.49;96354.06;6269783;28;19954;-71
2023/07/26 05:02:30;;;;;;;;;;;;;;;42.35;21.75;96357.19;6235342;28;19935;-72
2023/07/26 05:05:34;;;;;;;;;;;;;;;44.77;20.09;96360.59;6268618;28;19924;-71
2023/07/26 05:08:37;;;;;;;;;;;;;;;46.34;16.54;96359.53;6269064;28;19964;-71
2023/07/26 05:11:38;;;;;;;;;;;;;;;47.10;15.45;96358.16;6269203;28;20056;-70
2023/07/26 05:14:43;;;;;;;;;;;;;;;48.52;14.67;96360.78;6269508;28;19925;-72
2023/07/26 05:17:47;;;;;;;;;;;;;;;50.12;13.98;96364.97;6251571;28;19929;-72
2023/07/26 05:20:51;;;;;;;;;;;;;;;51.60;13.32;96367.13;6252203;28;19928;-73
2023/07/26 05:23:56;;;;;;;;;;;;;;;52.91;12.40;96371.88;6269425;28;19924;-71
2023/07/26 05:27:03;;;;;;;;;;;;;;;53.82;11.57;96372.16;6269292;28;19931;-73
2023/07/26 05:30:07;;;;;;;;;;;;;;;54.17;9.71;96361.44;6269310;28;19931;-72
2023/07/26 05:33:15;;;;;;;;;;;;;;;54.46;11.81;96367.97;6269125;28;20272;-71
2023/07/26 05:36:20;;;;;;;;;;;;;;;55.35;9.28;96373.72;6269226;28;19931;-71
2023/07/26 05:39:21;;;;;;;;;;;;;;;56.13;10.73;96373.88;6263349;28;20544;-72
2023/07/26 05:42:23;;;;;;;;;;;;;;;57.08;11.10;96373.72;6316015;28;19904;-72
2023/07/26 05:45:30;;;;;;;;;;;;;;;57.88;9.17;96386.66;6323628;28;20382;-70
2023/07/26 05:48:35;;;;;;;;;;;;;;;57.76;8.60;96387.22;6310748;28;19904;-71
2023/07/26 05:51:39;;;;;;;;;;;;;;;58.49;9.56;96391.56;6327680;28;19924;-71
2023/07/26 05:54:41;;;;;;;;;;;;;;;58.80;8.15;96394.34;6328709;28;19947;-71
2023/07/26 05:57:46;;;;;;;;;;;;;;;58.82;9.01;96389.06;6313535;28;19966;-71
2023/07/26 06:00:53;;;;;;;;;;;;;;;59.27;7.55;96394.44;6330645;28;19929;-71
2023/07/26 06:04:00;;;;;;;;;;;;;;;58.60;7.01;96385.72;6329823;28;19935;-70
2023/07/26 06:07:05;;;;;;;;;;;;;;;57.26;6.78;96379.22;6328269;28;19925;-72
2023/07/26 06:10:13;;;;;;;;;;;;;;;57.28;7.45;96383.25;6307533;28;19925;-71
2023/07/26 06:13:19;;;;;;;;;;;;;;;57.70;6.13;96369.88;6328433;28;19962;-71
2023/07/26 06:16:23;;;;;;;;;;;;;;;57.95;7.57;96377.28;6329192;28;19931;-72
2023/07/26 06:19:31;;;;;;;;;;;;;;;58.27;6.50;96370.41;6326644;28;19984;-72
2023/07/26 06:22:37;;;;;;;;;;;;;;;58.87;5.57;96369.53;6309558;28;19952;-71
2023/07/26 06:25:40;;;;;;;;;;;;;;;59.90;6.75;96385.16;6328821;28;19988;-72
2023/07/26 06:28:45;;;;;;;;;;;;;;;60.75;6.32;96387.38;6313970;28;19929;-70
2023/07/26 06:42:22;;;;;;;;;;;;;;;58.45;7.21;96374.63;7389613;23;20063;-73
2023/07/26 06:45:26;;;;;;;;;;;;;;;56.73;7.13;96355.78;6130655;29;20022;-72
2023/07/26 06:48:29;;;;;;;;;;;;;;;57.02;7.62;96352.75;6149360;29;19926;-72
2023/07/26 06:51:33;;;;;;;;;;;;;;;57.75;5.53;96355.25;6155039;29;19927;-72
2023/07/26 06:54:37;;;;;;;;;;;;;;;58.13;6.22;96349.56;6154691;29;19950;-72
2023/07/26 06:57:40;;;;;;;;;;;;;;;59.08;5.73;96354.19;6155485;29;20014;-72
2023/07/26 07:00:44;;;;;;;;;;;;;;;59.98;5.58;96356.16;6157627;29;19952;-72
2023/07/26 07:03:51;;;;;;;;;;;;;;;59.60;5.18;96349.22;6158356;29;19907;-71
2023/07/26 07:06:55;;;;;;;;;;;;;;;59.28;5.35;96351.44;6155677;29;19938;-72
2023/07/26 07:10:03;;;;;;;;;;;;;;;59.83;5.24;96343.50;6155818;29;19931;-72
2023/07/26 07:13:08;;;;;;;;;;;;;;;59.31;5.29;96335.56;6155519;29;19999;-73
2023/07/26 07:16:12;;;;;;;;;;;;;;;59.96;5.38;96333.06;6155172;29;19911;-72
2023/07/26 07:19:21;;;;;;;;;;;;;;;60.84;5.31;96345.69;6158153;29;19984;-72
2023/07/26 07:25:49;;;;;;;;;;;;;;;60.41;4.81;96326.00;6518762;23;19937;-72
2023/07/26 07:28:53;;;;;;;;;;;;;;;61.29;4.63;96336.41;6117968;29;19915;-72
2023/07/26 07:45:37;;;;;;;;;;;;;;;60.90;4.66;96336.63;6291473;23;19974;-73
2023/07/26 07:48:42;;;;;;;;;;;;;;;60.50;5.47;96328.25;6141380;29;19965;-72
2023/07/26 07:51:46;;;;;;;;;;;;;;;59.34;5.00;96314.84;6156049;29;19907;-72
2023/07/26 07:54:53;;;;;;;;;;;;;;;58.79;6.24;96324.72;6153705;29;19918;-72
2023/07/26 07:57:58;;;;;;;;;;;;;;;57.92;5.95;96313.00;6145380;29;19927;-72
2023/07/26 08:01:03;;;;;;;;;;;;;;;58.23;6.03;96310.97;6118642;29;19989;-72
2023/07/26 08:04:07;;;;;;;;;;;;;;;59.58;4.77;96309.94;6151350;29;19981;-72
2023/07/26 08:07:11;;;;;;;;;;;;;;;60.20;4.82;96308.22;6154072;29;19951;-71
2023/07/26 08:10:15;;;;;;;;;;;;;;;59.49;5.10;96306.88;6152377;29;19910;-71
2023/07/26 08:13:19;;;;;;;;;;;;;;;58.17;6.29;96307.03;6121635;29;19927;-72
2023/07/26 08:16:21;;;;;;;;;;;;;;;59.53;5.42;96304.75;6141899;29;19927;-72
2023/07/26 08:19:25;;;;;;;;;;;;;;;60.91;4.86;96304.91;6153222;29;19931;-72
2023/07/26 08:22:31;;;;;;;;;;;;;;;61.74;4.44;96298.59;6139066;29;19930;-72
2023/07/26 08:25:39;;;;;;;;;;;;;;;62.64;4.70;96315.00;6139160;29;19907;-72
2023/07/26 08:28:42;;;;;;;;;;;;;;;62.34;4.19;96311.44;6157587;29;19954;-73
2023/07/26 08:31:46;;;;;;;;;;;;;;;59.38;5.47;96292.91;6152288;29;20393;-73
2023/07/26 08:34:49;;;;;;;;;;;;;;;59.11;5.86;96290.94;6136723;29;20377;-72
2023/07/26 08:37:52;;;;;;;;;;;;;;;60.39;4.81;96292.38;6145139;29;19958;-72
2023/07/26 08:40:53;;;;;;;;;;;;;;;61.18;4.75;96296.06;6122202;29;19927;-72
2023/07/26 08:43:59;;;;;;;;;;;;;;;60.89;5.03;96289.53;6149312;29;20011;-72
2023/07/26 08:47:03;;;;;;;;;;;;;;;58.65;5.59;96286.84;6127683;29;19927;-73
2023/07/26 08:50:10;;;;;;;;;;;;;;;57.29;6.28;96274.53;6124316;29;20485;-73
2023/07/26 08:53:14;;;;;;;;;;;;;;;58.15;5.63;96270.63;6124373;29;19989;-73
2023/07/26 08:56:17;;;;;;;;;;;;;;;59.40;5.13;96273.41;6107730;29;20078;-73
2023/07/26 08:59:20;;;;;;;;;;;;;;;59.37;5.06;96271.41;6091423;29;20210;-73
2023/07/26 09:02:23;;;;;;;;;;;;;;;56.69;6.29;96261.75;6107635;29;19926;-73
2023/07/26 09:05:27;;;;;;;;;;;;;;;53.82;7.07;96251.16;6124336;29;19933;-72
2023/07/26 09:08:31;;;;;;;;;;;;;;;53.01;7.36;96240.31;6124371;29;19938;-72
2023/07/26 09:11:35;;;;;;;;;;;;;;;50.19;8.84;96238.38;6107717;29;19958;-73
2023/07/26 09:14:39;;;;;;;;;;;;;;;47.83;9.54;96233.75;6124325;29;20225;-73
2023/07/26 09:17:43;;;;;;;;;;;;;;;45.61;10.64;96227.44;6107352;29;20033;-73
2023/07/26 09:20:47;;;;;;;;;;;;;;;43.50;11.77;96227.09;6125101;29;20418;-73
2023/07/26 09:23:50;;;;;;;;;;;;;;;41.61;13.31;96224.19;6128922;29;19937;-72
2023/07/26 09:26:53;;;;;;;;;;;;;;;39.80;14.86;96230.16;6111669;29;20014;-73
2023/07/26 09:29:57;;;;;;;;;;;;;;;38.08;15.75;96227.53;6128596;29;20025;-71
2023/07/26 09:33:01;;;;;;;;;;;;;;;36.76;17.24;96232.88;6111307;29;19926;-72
2023/07/26 09:36:03;;;;;;;;;;;;;;;36.11;17.65;96225.44;6128363;29;19926;-74
2023/07/26 09:39:07;;;;;;;;;;;;;;;35.21;19.26;96236.97;6128359;29;20021;-72
2023/07/26 09:42:10;;;;;;;;;;;;;;;34.15;21.78;96233.56;6128343;29;19933;-72
2023/07/26 09:45:16;;;;;;;;;;;;;;;34.94;21.72;96241.81;6128075;29;19957;-72
2023/07/26 09:48:19;;;;;;;;;;;;;;;37.19;20.35;96235.94;6128044;29;20417;-73
2023/07/26 09:51:24;;;;;;;;;;;;;;;40.00;17.19;96251.00;6111222;29;20389;-73
2023/07/26 09:54:28;;;;;;;;;;;;;;;43.55;14.24;96254.66;6128159;29;19934;-73
2023/07/26 09:57:31;;;;;;;;;;;;;;;46.92;12.06;96259.28;6127822;29;19933;-72
2023/07/26 10:00:34;;;;;;;;;;;;;;;48.99;10.97;96267.84;6127943;29;19933;-71
2023/07/26 10:03:39;;;;;;;;;;;;;;;49.77;10.16;96267.97;6110755;29;19933;-73
2023/07/26 10:06:42;;;;;;;;;;;;;;;50.23;10.11;96264.44;6127700;29;19926;-72
2023/07/26 10:09:45;;;;;;;;;;;;;;;50.74;9.62;96252.94;6110947;29;19934;-71
2023/07/26 10:12:52;;;;;;;;;;;;;;;51.32;9.39;96248.97;6127746;29;20411;-73
2023/07/26 10:15:56;;;;;;;;;;;;;;;51.36;9.48;96252.69;6127614;29;20401;-73
2023/07/26 10:19:02;;;;;;;;;;;;;;;51.44;9.37;96251.56;6127453;29;19933;-73
2023/07/26 10:22:08;;;;;;;;;;;;;;;50.32;10.06;96249.03;6127118;29;20320;-72
2023/07/26 10:25:11;;;;;;;;;;;;;;;48.59;10.56;96236.56;6127322;29;19930;-72
2023/07/26 10:28:15;;;;;;;;;;;;;;;47.81;10.48;96236.09;6127287;29;19933;-72
2023/07/26 10:31:22;;;;;;;;;;;;;;;45.99;11.74;96228.38;6126875;29;19926;-73
2023/07/26 10:34:25;;;;;;;;;;;;;;;42.77;13.39;96227.66;6127129;29;19930;-74
2023/07/26 10:37:33;;;;;;;;;;;;;;;40.49;15.10;96231.06;6126868;29;19933;-73
2023/07/26 10:40:37;;;;;;;;;;;;;;;39.31;16.22;96215.00;6109977;29;20022;-73
2023/07/26 10:43:41;;;;;;;;;;;;;;;38.37;16.56;96222.78;6126774;29;19927;-73
2023/07/26 10:46:48;;;;;;;;;;;;;;;37.34;17.99;96254.22;6126806;29;19997;-73
2023/07/26 10:49:54;;;;;;;;;;;;;;;35.07;21.17;96260.44;6126730;29;20005;-73
2023/07/26 10:52:58;;;;;;;;;;;;;;;31.67;32.50;96267.59;6126611;29;19927;-71
2023/07/26 10:56:08;;;;;;;;;;;;;;;27.12;43.38;96269.69;6109952;29;20407;-74
2023/07/26 10:59:14;;;;;;;;;;;;;;;24.83;50.73;96294.75;6126981;29;19962;-76
2023/07/26 11:02:36;;;;;;;;;;;;;;;22.81;57.14;96295.38;6126575;29;19933;-77
2023/07/26 11:05:39;;;;;;;;;;;;;;;21.28;58.74;96321.84;6109515;29;19927;-76
2023/07/26 11:08:43;;;;;;;;;;;;;;;21.32;62.54;96312.44;6109041;29;20025;-77
2023/07/26 11:11:59;;;;;;;;;;;;;;;21.13;64.01;96291.53;6126272;29;19926;-78
2023/07/26 11:15:02;;;;;;;;;;;;;;;21.51;62.30;96279.00;6126705;29;19962;-76
2023/07/26 11:18:06;;;;;;;;;;;;;;;22.61;60.24;96272.88;6126181;29;19927;-71
2023/07/26 11:21:16;;;;;;;;;;;;;;;23.67;60.30;96292.69;6126318;29;20457;-70
2023/07/26 11:24:26;;;;;;;;;;;;;;;23.78;62.72;96298.53;6126013;29;19933;-68
2023/07/26 11:27:29;;;;;;;;;;;;;;;24.13;64.41;96286.78;6125936;29;20419;-69
2023/07/26 11:30:33;;;;;;;;;;;;;;;25.21;64.43;96283.44;6126013;29;19926;-71
2023/07/26 11:33:39;;;;;;;;;;;;;;;26.37;65.30;96293.69;6125717;29;19927;-71
2023/07/26 11:36:42;;;;;;;;;;;;;;;27.04;61.84;96296.94;6125655;29;19930;-70
2023/07/26 11:39:45;;;;;;;;;;;;;;;27.00;62.92;96282.22;6125552;29;20401;-71
2023/07/26 11:42:52;;;;;;;;;;;;;;;26.59;61.57;96281.59;6125072;29;20304;-70
2023/07/26 11:45:55;;;;;;;;;;;;;;;26.25;59.03;96280.06;6125146;29;19926;-71
2023/07/26 11:48:59;;;;;;;;;;;;;;;26.37;58.08;96278.34;6125039;29;19926;-71
2023/07/26 11:52:03;;;;;;;;;;;;;;;26.72;58.55;96279.88;6125373;29;19933;-71
2023/07/26 11:55:06;;;;;;;;;;;;;;;27.46;58.79;96279.22;6125174;29;20042;-71
2023/07/26 11:58:12;;;;;;;;;;;;;;;27.95;52.44;96269.44;6125089;29;20007;-71
2023/07/26 12:01:17;;;;;;;;;;;;;;;28.65;53.73;96263.66;6125094;29;20420;-71
2023/07/26 12:04:21;;;;;;;;;;;;;;;29.46;54.34;96272.28;6107834;29;19927;-70
2023/07/26 12:07:26;;;;;;;;;;;;;;;30.02;54.50;96256.53;6125264;29;20473;-70
2023/07/26 12:10:34;;;;;;;;;;;;;;;29.98;55.25;96261.63;6124967;29;20311;-72
2023/07/26 12:13:38;;;;;;;;;;;;;;;29.61;54.95;96249.31;6124915;29;20013;-71
2023/07/26 12:16:47;;;;;;;;;;;;;;;29.33;55.09;96242.69;6124945;29;20026;-71
2023/07/26 12:19:50;;;;;;;;;;;;;;;28.99;53.10;96253.19;6124788;29;19974;-71
2023/07/26 12:22:55;;;;;;;;;;;;;;;28.88;52.08;96240.44;6124687;29;20262;-71
2023/07/26 12:26:01;;;;;;;;;;;;;;;29.02;53.17;96244.59;6124391;29;20025;-71
2023/07/26 12:29:05;;;;;;;;;;;;;;;29.21;51.67;96249.97;6124284;29;19949;-70
2023/07/26 12:32:13;;;;;;;;;;;;;;;29.51;48.61;96250.72;6124424;29;20400;-72
2023/07/26 12:35:20;;;;;;;;;;;;;;;29.85;49.05;96255.59;6124388;29;20461;-71
2023/07/26 12:38:24;;;;;;;;;;;;;;;30.14;48.19;96259.22;6124417;29;20449;-71
2023/07/26 12:41:28;;;;;;;;;;;;;;;30.41;47.65;96263.09;6124472;29;20024;-71
2023/07/26 12:44:31;;;;;;;;;;;;;;;30.46;44.08;96262.41;6124362;29;19926;-71
2023/07/26 12:47:35;;;;;;;;;;;;;;;30.22;46.71;96267.03;6124400;29;19927;-72
2023/07/26 12:50:41;;;;;;;;;;;;;;;29.92;47.26;96268.00;6124205;29;19926;-71
2023/07/26 12:53:45;;;;;;;;;;;;;;;29.94;47.20;96268.56;6123925;29;19934;-72
2023/07/26 12:56:47;;;;;;;;;;;;;;;30.04;46.10;96275.28;6128699;29;19926;-71
2023/07/26 12:59:51;;;;;;;;;;;;;;;30.04;45.91;96265.25;6128871;29;20018;-72
2023/07/26 13:02:54;;;;;;;;;;;;;;;30.07;44.97;96280.25;6128536;29;19944;-71
2023/07/26 13:05:58;;;;;;;;;;;;;;;29.97;43.66;96275.41;6112165;29;19933;-71
2023/07/26 13:09:02;;;;;;;;;;;;;;;29.88;43.92;96265.97;6129064;29;19927;-72
2023/07/26 13:12:06;;;;;;;;;;;;;;;29.97;42.88;96269.97;6128642;29;20307;-71
2023/07/26 13:15:09;;;;;;;;;;;;;;;29.97;43.61;96281.66;6128912;29;19931;-70
2023/07/26 13:18:12;;;;;;;;;;;;;;;29.91;43.16;96281.78;6128585;29;20393;-71
2023/07/26 13:21:16;;;;;;;;;;;;;;;29.74;43.02;96278.94;6128421;29;20014;-72
2023/07/26 13:24:20;;;;;;;;;;;;;;;29.53;42.59;96264.06;6128447;29;19989;-72
2023/07/26 13:27:22;;;;;;;;;;;;;;;29.29;42.70;96257.75;6111717;29;19933;-71
2023/07/26 13:30:25;;;;;;;;;;;;;;;29.39;41.87;96266.16;6128461;29;20444;-72
2023/07/26 13:33:28;;;;;;;;;;;;;;;29.81;40.64;96268.81;6128102;29;19931;-70
2023/07/26 13:36:31;;;;;;;;;;;;;;;30.15;40.20;96263.59;6128273;29;19950;-72
2023/07/26 13:39:35;;;;;;;;;;;;;;;30.19;39.54;96262.88;6128381;29;20316;-72
2023/07/26 13:42:39;;;;;;;;;;;;;;;30.02;39.43;96263.84;6128006;29;19927;-71
2023/07/26 13:45:43;;;;;;;;;;;;;;;29.87;39.66;96254.31;6129703;29;19933;-72
2023/07/26 13:48:47;;;;;;;;;;;;;;;29.75;39.56;96256.19;6127907;29;19933;-72
2023/07/26 13:51:50;;;;;;;;;;;;;;;29.59;39.31;96257.69;6111046;29;20320;-71
2023/07/26 13:54:54;;;;;;;;;;;;;;;29.34;39.68;96255.19;6127752;29;19949;-71
2023/07/26 13:57:58;;;;;;;;;;;;;;;29.22;39.70;96257.06;6111158;29;20424;-71
2023/07/26 14:01:02;;;;;;;;;;;;;;;29.21;39.66;96260.81;6127821;29;19933;-72
2023/07/26 14:04:04;;;;;;;;;;;;;;;29.16;39.66;96256.09;6110786;29;19927;-72
2023/07/26 14:07:08;;;;;;;;;;;;;;;29.15;39.43;96267.97;6126745;29;20401;-71
2023/07/26 14:10:10;;;;;;;;;;;;;;;29.07;38.85;96266.44;6127528;29;19926;-71
2023/07/26 14:13:14;;;;;;;;;;;;;;;28.75;39.01;96262.28;6127218;29;20356;-72
2023/07/26 14:16:17;;;;;;;;;;;;;;;28.48;39.11;96267.19;6127272;29;20403;-72
2023/07/26 14:19:21;;;;;;;;;;;;;;;28.19;39.40;96259.63;6126928;29;19934;-72
2023/07/26 14:22:24;;;;;;;;;;;;;;;27.95;39.67;96264.03;6127343;29;19933;-72
2023/07/26 14:25:28;;;;;;;;;;;;;;;27.83;39.90;96264.97;6126996;29;19933;-72
2023/07/26 14:28:32;;;;;;;;;;;;;;;27.72;39.97;96270.03;6126923;29;19933;-72
2023/07/26 14:31:36;;;;;;;;;;;;;;;27.55;40.14;96279.78;6127239;29;19934;-72
2023/07/26 14:34:40;;;;;;;;;;;;;;;27.29;40.06;96278.94;6127182;29;20357;-72
2023/07/26 14:37:43;;;;;;;;;;;;;;;27.08;40.25;96268.44;6127030;29;19927;-71
2023/07/26 14:40:47;;;;;;;;;;;;;;;27.07;39.80;96278.44;6126913;29;19926;-72
2023/07/26 14:43:50;;;;;;;;;;;;;;;27.04;39.77;96283.44;6126682;29;19937;-71
2023/07/26 14:46:53;;;;;;;;;;;;;;;26.95;39.81;96280.19;6126849;29;19933;-72
2023/07/26 14:49:57;;;;;;;;;;;;;;;26.87;40.25;96278.56;6126765;29;20029;-72
2023/07/26 14:53:01;;;;;;;;;;;;;;;26.82;40.18;96283.75;6126725;29;20397;-73
2023/07/26 14:56:05;;;;;;;;;;;;;;;26.87;39.92;96289.34;6126489;29;19927;-72
2023/07/26 14:59:08;;;;;;;;;;;;;;;26.79;39.98;96286.91;6126479;29;19927;-72
2023/07/26 15:02:11;;;;;;;;;;;;;;;26.66;40.16;96289.66;6126539;29;19934;-72
2023/07/26 15:05:15;;;;;;;;;;;;;;;26.47;40.49;96288.69;6126424;29;20038;-71
2023/07/26 15:08:28;;;;;;;;;;;;;;;26.21;40.36;96276.09;6126296;29;20425;-71
2023/07/26 15:11:35;;;;;;;;;;;;;;;26.00;40.74;96277.22;6126235;29;19927;-72
2023/07/26 15:14:42;;;;;;;;;;;;;;;25.82;41.46;96285.94;6126277;29;20021;-72
2023/07/26 15:17:46;;;;;;;;;;;;;;;25.64;41.18;96288.44;6125379;29;20010;-73
2023/07/26 15:20:49;;;;;;;;;;;;;;;25.59;42.01;96294.47;6125664;29;19934;-72
2023/07/26 15:23:53;;;;;;;;;;;;;;;25.48;42.08;96295.09;6126021;29;20484;-73
2023/07/26 15:26:56;;;;;;;;;;;;;;;25.36;42.41;96294.84;6125824;29;20049;-71
2023/07/26 15:30:00;;;;;;;;;;;;;;;25.26;42.75;96297.97;6108895;29;20025;-71
2023/07/26 15:33:03;;;;;;;;;;;;;;;25.12;43.42;96300.81;6125695;29;19949;-72
2023/07/26 15:36:11;;;;;;;;;;;;;;;24.94;43.49;96299.53;6108730;29;20021;-72
2023/07/26 15:39:20;;;;;;;;;;;;;;;24.80;43.84;96298.69;6093001;29;19997;-72
2023/07/26 15:42:24;;;;;;;;;;;;;;;24.63;44.34;96302.75;6125829;29;19935;-73
2023/07/26 15:45:26;;;;;;;;;;;;;;;24.51;44.71;96310.56;6127705;29;19926;-75
2023/07/26 15:48:29;;;;;;;;;;;;;;;24.43;44.95;96313.44;6148608;28;19934;-71
2023/07/26 15:51:33;;;;;;;;;;;;;;;24.28;45.39;96305.47;6149471;28;19933;-72
2023/07/26 15:54:35;;;;;;;;;;;;;;;24.17;45.83;96314.91;6148722;28;20308;-71
2023/07/26 15:57:36;;;;;;;;;;;;;;;24.05;46.25;96311.13;6147614;28;19933;-72
2023/07/26 16:00:43;;;;;;;;;;;;;;;23.95;45.85;96313.34;6147003;28;20068;-72
2023/07/26 16:03:45;;;;;;;;;;;;;;;23.90;45.59;96318.47;6148594;28;20304;-72
2023/07/26 16:06:49;;;;;;;;;;;;;;;23.83;46.04;96317.59;6149024;28;19923;-72
2023/07/26 16:09:51;;;;;;;;;;;;;;;23.76;46.06;96322.94;6149006;29;19926;-73
2023/07/26 16:12:57;;;;;;;;;;;;;;;23.63;46.34;96320.94;6148946;28;19922;-72
2023/07/26 16:16:03;;;;;;;;;;;;;;;23.51;46.18;96330.56;6148782;28;19926;-71
2023/07/26 16:19:19;;;;;;;;;;;;;;;23.43;46.36;96322.63;6148593;28;20352;-73
2023/07/26 16:22:22;;;;;;;;;;;;;;;23.31;46.37;96325.00;6142676;29;19933;-72
2023/07/26 16:25:25;;;;;;;;;;;;;;;23.22;46.60;96327.00;6148426;28;20061;-71